METAR Data
IDs: Format: Raw Decoded Include TAF

Data at: 2020 UTC 25 Sep 2020

KD25 252015Z AUTO 16008KT 10SM BKN031 BKN039 OVC045 22/18 A2975 RMK AO2 T02230177
KD25 251955Z AUTO 19007KT 10SM OVC029 22/18 A2977 RMK AO2 T02150175
KD25 251935Z AUTO 19006KT 10SM SCT020 OVC027 22/18 A2977 RMK AO2 T02150175
KD25 251915Z AUTO 17010KT 10SM BKN018 OVC025 21/17 A2977 RMK AO2 T02120174
KD25 251855Z AUTO 18009G15KT 10SM BKN013 BKN019 21/18 A2978 RMK AO2 T02080178
KD25 251835Z AUTO 17008KT 10SM OVC011 19/17 A2979 RMK AO2 T01900173
KD25 251815Z AUTO 18009KT 10SM OVC009 18/17 A2981 RMK AO2 T01810174
KD25 251755Z AUTO 18007KT 10SM OVC007 18/17 A2981 RMK AO2 T01750172 10175 20140
KD25 251735Z AUTO 17007KT 10SM OVC007 17/17 A2982 RMK AO2 T01710170
KD25 251715Z AUTO 17008KT 10SM OVC005 17/17 A2982 RMK AO2 T01700170
KD25 251655Z AUTO 17007KT 10SM OVC005 17/17 A2982 RMK AO2 T01660166
KD25 251635Z AUTO 16008KT 10SM OVC005 17/17 A2984 RMK AO2 T01650165
KD25 251615Z AUTO 16009KT 10SM OVC005 16/16 A2984 RMK AO2 T01610161
KD25 251555Z AUTO 17008KT 10SM OVC005 16/16 A2985 RMK AO2 T01600160
KD25 251535Z AUTO 18007KT 10SM OVC005 16/16 A2985 RMK AO2 T01570157
KD25 251515Z AUTO 17005KT 10SM OVC005 16/16 A2986 RMK AO2 T01550155
KD25 251455Z AUTO 20006KT 10SM OVC005 15/15 A2987 RMK AO2 T01520152
KD25 251435Z AUTO 20006KT 10SM OVC007 15/15 A2987 RMK AO2 T01520152
KD25 251415Z AUTO 17006KT 10SM OVC007 15/15 A2987 RMK AO2 LTG DSNT W T01530153
KD25 251355Z AUTO 16008KT 10SM OVC007 15/15 A2986 RMK AO2 T01470147
KD25 251335Z AUTO 16008KT 10SM OVC007 15/15 A2986 RMK AO2 T01470147
KD25 251315Z AUTO 19005KT 10SM OVC007 15/15 A2988 RMK AO2 T01460146
KD25 251255Z AUTO 19005KT 10SM OVC007 15/15 A2988 RMK AO2 T01450145
KD25 251235Z AUTO 18003KT 10SM OVC007 14/14 A2988 RMK AO2 T01430143
KD25 251215Z AUTO 17004KT 10SM OVC007 14/14 A2987 RMK AO2 T01410141
KD25 251155Z AUTO 18005KT 10SM OVC007 14/14 A2988 RMK AO2 70004 T01400140 10146 20138
KD25 251135Z AUTO 19003KT 10SM BKN009 OVC012 14/14 A2988 RMK AO2 LTG DSNT W T01400140
KD25 251115Z AUTO 00000KT 10SM OVC014 14/14 A2987 RMK AO2 T01390139
KD25 251055Z AUTO 20004KT 10SM BKN005 OVC016 14/14 A2987 RMK AO2 T01430143
KD25 251035Z AUTO 19004KT 10SM OVC005 15/15 A2987 RMK AO2 T01450145
KD25 251015Z AUTO 20004KT 10SM OVC009 15/15 A2987 RMK AO2 T01450145
KD25 250955Z AUTO 18003KT 10SM OVC009 15/15 A2987 RMK AO2 T01450145
KD25 250935Z AUTO 20006KT 10SM SCT003 OVC007 15/15 A2987 RMK AO2 T01450145
KD25 250915Z AUTO 20005KT 2SM BR OVC003 15/15 A2987 RMK AO2 T01450145
KD25 250855Z AUTO 16004KT 1 3/4SM BR OVC003 15/15 A2986 RMK AO2 T01450145
KD25 250835Z AUTO 17003KT 3SM BR OVC003 15/15 A2987 RMK AO2 T01450145
KD25 250815Z AUTO 16003KT 5SM BR OVC005 15/15 A2988 RMK AO2 T01450145
KD25 250755Z AUTO 16003KT 7SM OVC005 14/14 A2988 RMK AO2 T01430143
KD25 250735Z AUTO 00000KT 7SM OVC005 15/15 A2988 RMK AO2 T01450145
KD25 250715Z AUTO 00000KT 10SM OVC007 14/14 A2988 RMK AO2 T01440144
KD25 250655Z AUTO 14003KT 10SM SCT007 OVC030 14/14 A2988 RMK AO2 T01440144
KD25 250635Z AUTO 14003KT 10SM OVC027 15/15 A2988 RMK AO2 T01460146
KD25 250615Z AUTO 13005KT 10SM SCT009 OVC025 15/15 A2988 RMK AO2 LTG DSNT NW T01450145
KD25 250555Z AUTO 14003KT 10SM BKN009 OVC023 15/15 A2989 RMK AO2 T01450145 10155 20132 401730132
KD25 250535Z AUTO 14003KT 10SM BKN009 OVC021 15/15 A2989 RMK AO2 T01450145
KD25 250515Z AUTO 00000KT 10SM BKN009 OVC017 15/15 A2989 RMK AO2 T01450145
KD25 250455Z AUTO 15003KT 10SM SCT004 BKN010 OVC014 15/15 A2989 RMK AO2 T01450145
KD25 250435Z AUTO 13004KT 3SM BR OVC004 15/15 A2989 RMK AO2 T01450145
KD25 250415Z AUTO 14004KT 2 1/2SM BR OVC004 15/15 A2990 RMK AO2 T01460146
KD25 250355Z AUTO 12004KT 3SM BR OVC004 15/15 A2990 RMK AO2 T01460146
KD25 250335Z AUTO 10003KT 5SM BR OVC004 15/15 A2990 RMK AO2 T01470147
KD25 250315Z AUTO 10003KT 10SM BKN006 OVC014 15/15 A2991 RMK AO2 T01480148
KD25 250255Z AUTO 11005KT 10SM SCT006 OVC024 15/15 A2990 RMK AO2 T01500150
KD25 250235Z AUTO 13003KT 10SM SCT006 BKN026 OVC032 15/15 A2990 RMK AO2 T01500150
KD25 250215Z AUTO 11004KT 10SM SCT006 OVC028 15/15 A2990 RMK AO2 T01500150
KD25 250155Z AUTO 11003KT 10SM OVC030 15/15 A2990 RMK AO2 T01500150
KD25 250135Z AUTO 13006KT 7SM OVC028 15/15 A2991 RMK AO2 T01520152
KD25 250115Z AUTO 12003KT 4SM BR OVC030 16/16 A2991 RMK AO2 T01550155
KD25 250055Z AUTO 00000KT 10SM OVC028 15/15 A2991 RMK AO2 T01470147
KD25 250035Z AUTO 00000KT 10SM OVC032 14/14 A2991 RMK AO2 T01370137
KD25 250015Z AUTO 00000KT 10SM BKN034 15/15 A2990 RMK AO2 T01450145
KD25 242355Z AUTO 00000KT 10SM CLR 14/14 A2990 RMK AO2 T01430143 10173 20143
KD25 242335Z AUTO 08003KT 10SM SCT040 16/16 A2990 RMK AO2 T01560156
KD25 242315Z AUTO 13003KT 2 1/2SM BR BKN040 16/16 A2989 RMK AO2 VIS 1 1/4V5 T01580158
KD25 242255Z AUTO 11004KT 10SM SCT035 OVC044 16/16 A2989 RMK AO2 T01630156
KD25 242235Z AUTO 09003KT 10SM SCT017 BKN035 OVC044 17/16 A2990 RMK AO2 T01650157
KD25 242215Z AUTO 12003KT 10SM BKN015 OVC035 17/15 A2990 RMK AO2 T01650153
KD25 242155Z AUTO 10004KT 10SM BKN015 OVC080 17/16 A2990 RMK AO2 T01670156
KD25 242135Z AUTO 00000KT 10SM SCT013 BKN080 OVC100 17/16 A2990 RMK AO2 T01690157
KD25 242115Z AUTO 12003KT 10SM SCT011 BKN080 OVC100 17/16 A2990 RMK AO2 T01730160
KD25 242055Z AUTO 10003KT 10SM SCT014 BKN060 OVC100 17/16 A2991 RMK AO2 T01700161
KD25 242035Z AUTO 11003KT 10SM SCT009 SCT018 OVC070 17/16 A2991 RMK AO2 T01680161
KD25 242015Z AUTO 09003KT 10SM SCT011 SCT020 OVC070 17/17 A2991 RMK AO2 T01700165
KD25 241955Z AUTO 10003KT 10SM BKN009 BKN015 OVC070 17/17 A2991 RMK AO2 T01680168
KD25 241935Z AUTO 00000KT 10SM SCT009 SCT038 OVC070 17/17 A2991 RMK AO2 T01670166
KD25 241915Z AUTO 06003KT 10SM BKN007 OVC040 17/17 A2991 RMK AO2 T01650165
KD25 241855Z AUTO 09003KT 10SM BKN009 BKN043 OVC070 16/16 A2991 RMK AO2 T01640164
KD25 241835Z AUTO 00000KT 10SM BKN009 OVC070 16/16 A2991 RMK AO2 T01590159
KD25 241815Z AUTO 13003KT 10SM OVC007 16/16 A2992 RMK AO2 T01580158
KD25 241755Z AUTO 09004KT 7SM BKN005 OVC009 16/16 A2993 RMK AO2 P0001 60004 T01550155 10155 20140
KD25 241735Z AUTO 09004KT 7SM -DZ OVC005 15/15 A2993 RMK AO2 T01510151
KD25 241715Z AUTO 10003KT 7SM RA OVC005 15/15 A2994 RMK AO2 T01500150
KD25 241655Z AUTO 09003KT 10SM OVC005 15/15 A2994 RMK AO2 T01480148
KD25 241635Z AUTO 09003KT 10SM OVC003 15/15 A2994 RMK AO2 T01490149
KD25 241615Z AUTO 06003KT 10SM OVC003 15/15 A2994 RMK AO2 LTG DSNT SW T01470147
KD25 241555Z AUTO 05003KT 10SM OVC005 15/15 A2994 RMK AO2 T01470147
KD25 241535Z AUTO 05003KT 10SM -RA OVC005 15/15 A2994 RMK AO2 T01500150
KD25 241515Z AUTO 08003KT 10SM -RA OVC005 15/15 A2994 RMK AO2 T01460146
KD25 241455Z AUTO 06003KT 10SM DZ OVC005 15/15 A2992 RMK AO2 60003 T01460146
KD25 241435Z AUTO 00000KT 10SM DZ OVC005 15/15 A2992 RMK AO2 T01450145
KD25 241415Z AUTO 00000KT 10SM RA OVC005 15/15 A2992 RMK AO2 T01450145
KD25 241355Z AUTO 00000KT 10SM -RA OVC003 14/14 A2991 RMK AO2 P0001 T01430143
KD25 241335Z AUTO 11003KT 10SM -RA BKN003 OVC090 14/14 A2990 RMK AO2 T01420142
KD25 241315Z AUTO 00000KT 10SM -DZ SCT075 OVC090 14/14 A2989 RMK AO2 T01410141
KD25 241255Z AUTO 00000KT 10SM RA SCT007 SCT029 OVC090 14/14 A2991 RMK AO2 P0002 T01410141
KD25 241235Z AUTO 00000KT 10SM DZ SCT005 SCT029 OVC090 14/14 A2991 RMK AO2 P0002 T01400140
KD25 241215Z AUTO 00000KT 7SM RA BKN005 OVC090 14/14 A2991 RMK AO2 LTG DSNT E P0001 T01400140
KD25 241155Z AUTO 00000KT 10SM -RA OVC005 14/14 A2991 RMK AO2 P0002 60018 70060 T01400140 10153 20138
KD25 241135Z AUTO 00000KT 10SM -DZ BKN007 BKN041 OVC100 14/14 A2991 RMK AO2 P0001 T01380138
KD25 241115Z AUTO 00000KT 10SM -RA OVC007 14/14 A2991 RMK AO2 LTG DSNT SW T01400140
KD25 241055Z AUTO 00000KT 10SM -RA BKN007 BKN034 OVC055 14/14 A2991 RMK AO2 P0001 T01400140
KD25 241035Z AUTO 18003KT 10SM DZ SCT007 BKN055 OVC100 14/14 A2991 RMK AO2 P0001 T01410141
KD25 241015Z AUTO 16005KT 10SM RA OVC090 14/14 A2991 RMK AO2 P0001 T01420142
KD25 240955Z AUTO 13004KT 10SM RA OVC090 14/14 A2991 RMK AO2 P0008 T01430143
KD25 240935Z AUTO 15005KT 10SM -RA OVC090 14/14 A2992 RMK AO2 P0006 T01430143
KD25 240915Z AUTO 16007KT 10SM RA OVC090 15/15 A2992 RMK AO2 LTG DSNT SE AND S P0003 T01450145
KD25 240855Z AUTO 16006KT 10SM -RA SCT070 OVC100 15/15 A2992 RMK AO2 LTG DSNT SE AND S P0001 60005 T01450145
KD25 240835Z AUTO 15003KT 10SM -VCTSRA BKN080 OVC090 15/15 A2991 RMK AO2 LTG DSNT S AND SW P0001 T01450145